createdAt,value
2022-08-19T00:02:13.111Z,19.43
2022-08-19T00:05:16.611Z,19.00
2022-08-19T00:08:18.231Z,20.17
2022-08-19T00:11:26.080Z,19.60
2022-08-19T00:14:28.722Z,20.50
2022-08-19T00:17:30.336Z,18.30
2022-08-19T00:20:31.932Z,18.17
2022-08-19T00:23:35.702Z,18.77
2022-08-19T00:26:39.492Z,20.13
2022-08-19T00:29:41.203Z,19.30
2022-08-19T00:32:42.791Z,21.13
2022-08-19T00:35:44.415Z,20.03
2022-08-19T00:38:46.394Z,19.47
2022-08-19T00:41:50.471Z,19.13
2022-08-19T00:44:52.287Z,18.77
2022-08-19T00:47:53.914Z,19.83
2022-08-19T00:50:56.409Z,18.57
2022-08-19T00:53:59.535Z,18.90
2022-08-19T00:57:05.467Z,20.37
2022-08-19T01:00:14.574Z,18.53
2022-08-19T01:03:19.800Z,18.73
2022-08-19T01:06:21.711Z,18.97
2022-08-19T01:09:23.638Z,19.10
2022-08-19T01:12:25.314Z,19.10
2022-08-19T01:15:33.316Z,18.90
2022-08-19T01:18:40.166Z,17.37
2022-08-19T01:21:46.427Z,17.23
2022-08-19T01:24:50.025Z,17.90
2022-08-19T01:27:53.648Z,17.50
2022-08-19T01:30:56.593Z,17.20
2022-08-19T01:33:59.203Z,17.53
2022-08-19T01:37:07.822Z,19.00
2022-08-19T01:40:10.663Z,18.40
2022-08-19T01:43:12.333Z,18.67
2022-08-19T01:46:13.970Z,18.67
2022-08-19T01:49:18.421Z,19.10
2022-08-19T01:52:20.335Z,17.00
2022-08-19T01:55:24.779Z,18.30
2022-08-19T01:58:36.915Z,18.13
2022-08-19T02:01:38.699Z,18.60
2022-08-19T02:04:40.579Z,18.20
2022-08-19T02:07:42.484Z,18.17
2022-08-19T02:10:44.721Z,17.00
2022-08-19T02:13:46.443Z,19.60
2022-08-19T02:16:48.725Z,18.60
2022-08-19T02:19:50.488Z,17.57
2022-08-19T02:22:52.534Z,17.90
2022-08-19T02:25:54.383Z,17.70
2022-08-19T02:28:57.414Z,16.30
2022-08-19T02:31:59.094Z,17.77
2022-08-19T02:35:00.864Z,16.10
2022-08-19T02:38:21.136Z,17.20
2022-08-19T02:41:29.124Z,17.67
2022-08-19T02:44:31.921Z,17.53
2022-08-19T02:47:34.618Z,17.70
2022-08-19T02:50:40.458Z,17.70
2022-08-19T02:53:54.912Z,18.37
2022-08-19T02:56:56.543Z,18.53
2022-08-19T02:59:58.240Z,18.40
2022-08-19T03:03:01.385Z,18.53
2022-08-19T03:06:13.494Z,18.43
2022-08-19T03:09:16.005Z,20.63
2022-08-19T03:12:17.695Z,19.00
2022-08-19T03:15:19.306Z,20.20
2022-08-19T03:18:21.053Z,20.63
2022-08-19T03:21:26.622Z,20.63
2022-08-19T03:24:28.271Z,19.93
2022-08-19T03:27:34.462Z,20.60
2022-08-19T03:30:36.557Z,20.30
2022-08-19T03:33:38.630Z,19.90
2022-08-19T03:36:41.012Z,20.20
2022-08-19T03:39:43.290Z,20.00
2022-08-19T03:42:48.955Z,20.80
2022-08-19T03:46:01.696Z,20.30
2022-08-19T03:49:08.077Z,20.17
2022-08-19T03:52:09.714Z,21.43
2022-08-19T03:55:11.455Z,21.37
2022-08-19T03:58:13.095Z,20.13
2022-08-19T04:01:18.522Z,21.63
2022-08-19T04:04:20.263Z,21.00
2022-08-19T04:07:22.286Z,20.43
2022-08-19T04:10:24.828Z,21.00
2022-08-19T04:13:26.445Z,21.40
2022-08-19T04:16:35.248Z,21.10
2022-08-19T04:19:37.488Z,19.97
2022-08-19T04:22:39.059Z,19.67
2022-08-19T04:25:43.244Z,18.70
2022-08-19T04:28:45.078Z,20.30
2022-08-19T04:31:47.414Z,18.40
2022-08-19T04:35:01.470Z,18.30
2022-08-19T04:38:11.923Z,20.00
2022-08-19T04:41:32.046Z,19.90
2022-08-19T04:44:35.556Z,20.00
2022-08-19T04:47:47.891Z,19.00
2022-08-19T04:51:00.185Z,20.17
2022-08-19T04:54:02.821Z,18.60
2022-08-19T04:57:09.297Z,19.30
2022-08-19T05:00:11.534Z,19.50
2022-08-19T05:03:14.034Z,18.23
2022-08-19T05:06:19.027Z,19.50
2022-08-19T05:09:22.462Z,19.07
2022-08-19T05:12:28.774Z,18.50
2022-08-19T05:15:32.086Z,17.93
2022-08-19T05:18:52.180Z,17.30
2022-08-19T05:22:13.061Z,17.93
2022-08-19T05:25:19.823Z,18.47
2022-08-19T05:28:22.281Z,19.00
2022-08-19T05:31:23.968Z,20.00
2022-08-19T05:34:26.966Z,18.30
2022-08-19T05:37:28.721Z,18.30
2022-08-19T05:40:30.475Z,15.40
2022-08-19T05:43:32.183Z,15.93
2022-08-19T05:46:33.809Z,17.10
2022-08-19T05:49:37.691Z,16.70
2022-08-19T05:52:45.895Z,17.67
2022-08-19T05:55:51.902Z,17.10
2022-08-19T05:58:55.116Z,17.23
2022-08-19T06:01:57.860Z,16.23
2022-08-19T06:04:59.598Z,16.97
2022-08-19T06:08:01.227Z,17.70
2022-08-19T06:11:18.258Z,17.63
2022-08-19T06:14:27.818Z,18.20
2022-08-19T06:17:31.705Z,16.90
2022-08-19T06:20:54.549Z,16.40
2022-08-19T06:23:56.897Z,15.83
2022-08-19T06:27:01.666Z,16.37
2022-08-19T06:30:05.696Z,15.47
2022-08-19T06:33:07.292Z,14.30
2022-08-19T06:36:17.116Z,14.30
2022-08-19T06:39:26.955Z,15.47
2022-08-19T06:42:28.561Z,13.70
2022-08-19T06:45:34.424Z,13.00
2022-08-19T06:48:45.155Z,15.37
2022-08-19T06:51:49.423Z,13.53
2022-08-19T06:54:56.448Z,14.30
2022-08-19T06:57:58.407Z,14.30
2022-08-19T07:01:05.660Z,14.23
2022-08-19T07:04:12.095Z,14.20
2022-08-19T07:07:20.335Z,13.13
2022-08-19T07:10:23.402Z,14.53
2022-08-19T07:13:27.743Z,14.27
2022-08-19T07:16:29.838Z,13.20
2022-08-19T07:19:32.285Z,13.37
2022-08-19T07:22:35.666Z,12.63
2022-08-19T07:25:39.265Z,13.63
2022-08-19T07:28:51.403Z,13.57
2022-08-19T07:31:59.999Z,15.43
2022-08-19T07:35:04.245Z,13.90
2022-08-19T07:38:06.027Z,11.03
2022-08-19T07:41:10.672Z,11.03
2022-08-19T07:44:13.336Z,10.53
2022-08-19T07:47:47.989Z,12.93
2022-08-19T07:50:38.291Z,8.70
2022-08-19T07:53:40.142Z,9.30
2022-08-19T07:56:41.998Z,9.50
2022-08-19T07:59:43.941Z,9.00
2022-08-19T08:02:45.578Z,9.47
2022-08-19T08:06:06.452Z,8.43
2022-08-19T08:09:11.944Z,9.43
2022-08-19T08:12:34.175Z,8.60
2022-08-19T08:15:42.071Z,9.33
2022-08-19T08:18:50.619Z,9.30
2022-08-19T08:21:59.737Z,8.37
2022-08-19T08:25:06.985Z,8.43
2022-08-19T08:28:11.272Z,8.70
2022-08-19T08:31:22.335Z,8.90
2022-08-19T08:34:24.233Z,8.33
2022-08-19T08:37:25.891Z,8.90
2022-08-19T08:40:29.565Z,9.13
2022-08-19T08:43:38.415Z,8.20
2022-08-19T08:46:48.595Z,7.73
2022-08-19T08:50:00.743Z,7.30
2022-08-19T08:53:06.228Z,7.43
2022-08-19T08:56:13.559Z,7.20
2022-08-19T08:59:24.038Z,8.43
2022-08-19T09:02:25.894Z,7.23
2022-08-19T09:05:48.760Z,7.67
2022-08-19T09:09:12.452Z,7.93
2022-08-19T09:12:18.703Z,7.70
2022-08-19T09:15:44.598Z,7.47
2022-08-19T09:18:49.758Z,8.30
2022-08-19T09:21:51.951Z,8.23
2022-08-19T09:24:54.208Z,9.30
2022-08-19T09:28:02.277Z,7.90
2022-08-19T09:31:04.493Z,7.70
2022-08-19T09:34:06.225Z,8.70
2022-08-19T09:37:08.221Z,9.13
2022-08-19T09:40:11.956Z,9.83
2022-08-19T09:43:13.793Z,10.20
2022-08-19T09:46:18.376Z,10.80
2022-08-19T09:49:22.612Z,9.50
2022-08-19T09:52:26.067Z,10.87
2022-08-19T09:55:34.436Z,11.00
2022-08-19T09:58:36.918Z,11.67
2022-08-19T10:01:39.379Z,12.00
2022-08-19T10:04:59.522Z,11.73
2022-08-19T10:08:02.850Z,11.63
2022-08-19T10:11:28.033Z,12.03
2022-08-19T10:14:29.135Z,12.07
2022-08-19T10:17:31.756Z,12.30
2022-08-19T10:20:36.634Z,12.10
2022-08-19T10:23:44.749Z,13.03
2022-08-19T10:26:49.005Z,13.23
2022-08-19T10:29:58.803Z,12.27
2022-08-19T10:33:00.514Z,15.10
2022-08-19T10:36:08.748Z,13.17
2022-08-19T10:39:12.393Z,13.50
2022-08-19T10:42:14.681Z,14.17
2022-08-19T10:45:16.484Z,14.43
2022-08-19T10:48:19.456Z,14.77
2022-08-19T10:51:47.857Z,10.47
2022-08-19T10:55:09.031Z,11.10
2022-08-19T10:58:17.617Z,15.13
2022-08-19T11:01:19.429Z,15.07
2022-08-19T11:04:21.509Z,16.03
2022-08-19T11:07:30.664Z,17.90
2022-08-19T11:10:32.325Z,16.83
2022-08-19T11:13:41.611Z,16.10
2022-08-19T11:16:43.381Z,14.60
2022-08-19T11:19:44.965Z,14.60
2022-08-19T11:22:47.686Z,15.50
2022-08-19T11:25:50.810Z,13.17
2022-08-19T11:28:55.257Z,14.17
2022-08-19T11:31:56.928Z,11.70
2022-08-19T11:34:58.594Z,12.13
2022-08-19T11:38:01.083Z,12.90
2022-08-19T11:41:05.979Z,13.33
2022-08-19T11:44:11.107Z,12.57
2022-08-19T11:47:13.350Z,14.57
2022-08-19T11:50:16.130Z,15.00
2022-08-19T11:53:21.145Z,14.40
2022-08-19T11:56:24.911Z,13.63
2022-08-19T11:59:27.738Z,14.03
2022-08-19T12:02:29.344Z,13.13
2022-08-19T12:05:31.071Z,13.90
2022-08-19T12:08:36.935Z,13.70
2022-08-19T12:11:39.563Z,13.43
2022-08-19T12:14:41.292Z,12.93
2022-08-19T12:17:43.736Z,13.20
2022-08-19T12:20:46.883Z,13.30
2022-08-19T12:23:53.905Z,12.73
2022-08-19T12:27:00.856Z,13.27
2022-08-19T12:30:06.458Z,10.80
2022-08-19T12:33:08.739Z,11.03
2022-08-19T12:36:12.893Z,10.93
2022-08-19T12:39:14.760Z,9.27
2022-08-19T12:42:18.810Z,10.00
2022-08-19T12:45:20.834Z,9.67
2022-08-19T12:48:34.675Z,9.13
2022-08-19T12:51:40.176Z,9.77
2022-08-19T12:54:41.883Z,9.80
2022-08-19T12:57:43.489Z,8.57
2022-08-19T13:00:45.253Z,9.40
2022-08-19T13:03:47.671Z,10.07
2022-08-19T13:06:49.289Z,9.30
2022-08-19T13:09:53.191Z,8.50
2022-08-19T13:12:58.401Z,8.63
2022-08-19T13:16:04.789Z,8.50
2022-08-19T13:19:06.652Z,8.37
2022-08-19T13:22:13.239Z,8.37
2022-08-19T13:25:18.662Z,8.70
2022-08-19T13:28:23.220Z,8.23
2022-08-19T13:31:53.019Z,8.50
2022-08-19T13:34:54.915Z,7.80
2022-08-19T13:37:59.464Z,7.60
2022-08-19T13:41:11.020Z,8.00
2022-08-19T13:44:13.877Z,7.17
2022-08-19T13:47:15.556Z,7.30
2022-08-19T13:50:21.284Z,7.60
2022-08-19T13:53:23.204Z,7.50
2022-08-19T13:56:26.520Z,7.77
2022-08-19T13:59:28.295Z,7.60
2022-08-19T14:02:29.974Z,7.27
2022-08-19T14:05:32.669Z,6.70
2022-08-19T14:08:34.504Z,6.95
2022-08-19T14:11:36.156Z,7.38
2022-08-19T14:14:39.242Z,6.82
2022-08-19T14:17:47.468Z,6.80
2022-08-19T14:20:49.050Z,7.00
2022-08-19T14:23:51.001Z,7.57
2022-08-19T14:26:56.127Z,7.18
2022-08-19T14:29:57.783Z,7.43
2022-08-19T14:33:02.044Z,7.85
2022-08-19T14:36:05.007Z,7.50
2022-08-19T14:39:07.298Z,7.10
2022-08-19T14:42:11.469Z,7.30
2022-08-19T14:45:13.520Z,7.93
2022-08-19T14:48:19.450Z,8.33
2022-08-19T14:51:24.554Z,7.53
2022-08-19T14:54:26.511Z,8.07
2022-08-19T14:57:32.002Z,8.47
2022-08-19T15:00:33.642Z,8.40
2022-08-19T15:03:40.251Z,8.07
2022-08-19T15:06:43.226Z,7.83
2022-08-19T15:09:44.877Z,8.50
2022-08-19T15:12:49.824Z,9.00
2022-08-19T15:15:53.807Z,9.53
2022-08-19T15:18:59.862Z,8.93
2022-08-19T15:22:01.603Z,8.30
2022-08-19T15:25:04.517Z,8.83
2022-08-19T15:28:06.600Z,8.27
2022-08-19T15:31:08.827Z,7.47
2022-08-19T15:34:21.398Z,8.33
2022-08-19T15:37:23.965Z,7.77
2022-08-19T15:40:27.301Z,7.47
2022-08-19T15:43:31.130Z,8.38
2022-08-19T15:46:34.463Z,7.75
2022-08-19T15:49:36.087Z,8.30
2022-08-19T15:52:49.272Z,8.93
2022-08-19T15:55:51.419Z,8.98
2022-08-19T15:59:11.580Z,8.20
2022-08-19T16:02:32.401Z,8.60
2022-08-19T16:05:52.914Z,8.27
2022-08-19T16:09:01.802Z,8.02
2022-08-19T16:12:05.785Z,8.48
2022-08-19T16:15:09.604Z,7.78
2022-08-19T16:18:15.479Z,8.10
2022-08-19T16:21:17.174Z,8.43
2022-08-19T16:24:21.696Z,8.23
2022-08-19T16:27:23.417Z,7.60
2022-08-19T16:30:25.081Z,8.27
2022-08-19T16:33:26.762Z,8.32
2022-08-19T16:36:28.669Z,7.47
2022-08-19T16:39:30.352Z,8.45
2022-08-19T16:42:32.258Z,8.40
2022-08-19T16:45:34.332Z,7.97
2022-08-19T16:48:39.878Z,8.52
2022-08-19T16:51:44.145Z,8.85
2022-08-19T16:54:46.299Z,8.13
2022-08-19T16:57:48.023Z,8.82
2022-08-19T17:00:50.030Z,9.15
2022-08-19T17:03:52.908Z,8.43
2022-08-19T17:06:54.596Z,9.02
2022-08-19T17:09:57.044Z,9.13
2022-08-19T17:12:58.714Z,9.30
2022-08-19T17:16:00.656Z,9.00
2022-08-19T17:19:04.895Z,9.15
2022-08-19T17:22:06.511Z,9.57
2022-08-19T17:25:09.688Z,9.20
2022-08-19T17:28:15.721Z,9.55
2022-08-19T17:31:19.689Z,9.20
2022-08-19T17:34:21.771Z,9.70
2022-08-19T17:37:23.402Z,10.07
2022-08-19T17:40:26.065Z,9.65
2022-08-19T17:43:38.950Z,9.55
2022-08-19T17:46:46.510Z,9.60
2022-08-19T17:49:48.272Z,10.05
2022-08-19T17:52:52.295Z,9.40
2022-08-19T17:55:53.902Z,8.50
2022-08-19T17:59:00.691Z,8.73
2022-08-19T18:02:04.925Z,8.03
2022-08-19T18:05:07.130Z,8.50
2022-08-19T18:08:09.519Z,8.90
2022-08-19T18:11:11.512Z,8.57
2022-08-19T18:14:13.172Z,8.27
2022-08-19T18:17:19.055Z,8.17
2022-08-19T18:20:20.791Z,7.80
2022-08-19T18:23:44.928Z,8.00
2022-08-19T18:26:47.378Z,7.53
2022-08-19T18:29:49.082Z,7.33
2022-08-19T18:32:52.736Z,6.87
2022-08-19T18:35:54.449Z,7.37
2022-08-19T18:39:14.729Z,7.00
2022-08-19T18:42:36.695Z,7.10
2022-08-19T18:45:57.993Z,7.13
2022-08-19T18:49:05.460Z,7.33
2022-08-19T18:52:07.419Z,7.60
2022-08-19T18:55:09.389Z,7.30
2022-08-19T18:58:11.001Z,7.10
2022-08-19T19:01:21.757Z,6.90
2022-08-19T19:04:28.578Z,7.40
2022-08-19T19:07:30.305Z,7.00
2022-08-19T19:10:31.943Z,6.93
2022-08-19T19:13:35.796Z,7.93
2022-08-19T19:16:39.758Z,7.20
2022-08-19T19:19:42.816Z,7.23
2022-08-19T19:22:44.528Z,7.40
2022-08-19T19:25:50.923Z,6.93
2022-08-19T19:28:52.940Z,6.50
2022-08-19T19:31:55.951Z,7.20
2022-08-19T19:34:57.665Z,7.83
2022-08-19T19:37:59.529Z,7.07
2022-08-19T19:41:01.492Z,7.20
2022-08-19T19:44:30.524Z,7.50
2022-08-19T19:47:28.355Z,8.00
2022-08-19T19:50:31.175Z,7.83
2022-08-19T19:53:33.838Z,9.03
2022-08-19T19:56:35.661Z,7.80
2022-08-19T19:59:37.386Z,8.87
2022-08-19T20:02:50.123Z,8.90
2022-08-19T20:05:52.509Z,8.90
2022-08-19T20:09:10.724Z,8.60
2022-08-19T20:12:12.386Z,9.60
2022-08-19T20:15:14.852Z,9.57
2022-08-19T20:18:17.573Z,9.20
2022-08-19T20:21:19.168Z,8.73
2022-08-19T20:24:23.802Z,8.77
2022-08-19T20:27:26.451Z,9.90
2022-08-19T20:30:32.592Z,9.10
2022-08-19T20:33:34.795Z,9.23
2022-08-19T20:36:37.121Z,9.70
2022-08-19T20:39:38.834Z,10.70
2022-08-19T20:42:42.627Z,10.00
2022-08-19T20:45:44.789Z,9.50
2022-08-19T20:48:47.344Z,9.40
2022-08-19T20:51:49.290Z,9.10
2022-08-19T20:54:50.983Z,10.70
2022-08-19T20:57:52.713Z,9.53
2022-08-19T21:00:59.473Z,9.73
2022-08-19T21:04:01.186Z,10.27
2022-08-19T21:07:03.354Z,9.37
2022-08-19T21:10:06.733Z,9.17
2022-08-19T21:13:08.339Z,9.20
2022-08-19T21:16:10.057Z,9.07
2022-08-19T21:19:12.660Z,9.53
2022-08-19T21:22:14.468Z,9.20
2022-08-19T21:25:17.390Z,9.70
2022-08-19T21:28:34.981Z,9.63
2022-08-19T21:31:37.934Z,8.87
2022-08-19T21:34:39.706Z,9.40
2022-08-19T21:37:41.364Z,9.50
2022-08-19T21:40:42.992Z,9.10
2022-08-19T21:43:44.584Z,9.20
2022-08-19T21:46:46.206Z,9.50
2022-08-19T21:49:52.373Z,9.17
2022-08-19T21:52:54.880Z,8.63
2022-08-19T21:55:56.712Z,7.50
2022-08-19T21:58:58.338Z,7.90
2022-08-19T22:02:15.665Z,9.20
2022-08-19T22:05:23.230Z,9.80
2022-08-19T22:08:27.173Z,9.37
2022-08-19T22:11:28.967Z,9.40
2022-08-19T22:14:33.559Z,9.90
2022-08-19T22:17:36.397Z,9.07
2022-08-19T22:20:38.067Z,10.00
2022-08-19T22:23:41.807Z,9.30
2022-08-19T22:26:43.489Z,9.17
2022-08-19T22:29:45.265Z,9.57
2022-08-19T22:32:56.315Z,10.17
2022-08-19T22:35:58.662Z,10.23
2022-08-19T22:39:00.343Z,9.50
2022-08-19T22:42:02.332Z,9.80
2022-08-19T22:45:09.057Z,10.17
2022-08-19T22:48:13.537Z,9.40
2022-08-19T22:51:34.167Z,8.77
2022-08-19T22:54:35.833Z,8.13
2022-08-19T22:57:37.556Z,9.30
2022-08-19T23:00:39.172Z,8.30
2022-08-19T23:03:41.568Z,8.37
2022-08-19T23:06:43.362Z,8.80
2022-08-19T23:09:44.996Z,7.90
2022-08-19T23:12:48.842Z,6.37
2022-08-19T23:15:51.000Z,6.50
2022-08-19T23:18:55.925Z,6.90
2022-08-19T23:21:59.101Z,6.77
2022-08-19T23:25:09.649Z,6.40
2022-08-19T23:28:30.023Z,7.20
2022-08-19T23:31:32.522Z,6.50
2022-08-19T23:34:34.140Z,8.10
2022-08-19T23:37:37.280Z,7.20
2022-08-19T23:40:40.060Z,8.17
2022-08-19T23:43:44.447Z,6.67
2022-08-19T23:46:54.977Z,6.47
2022-08-19T23:49:57.914Z,6.60
2022-08-19T23:53:01.551Z,6.10
2022-08-19T23:56:03.706Z,6.80
2022-08-19T23:59:05.366Z,5.80
